sensor_id;sensor_type;location;lat;lon;timestamp;temperature;humidity
42885;DHT22;28534;48.100;11.584;2023-12-20T00:00:51;22.70;50.90
42885;DHT22;28534;48.100;11.584;2023-12-20T00:01:52;22.70;50.90
42885;DHT22;28534;48.100;11.584;2023-12-20T00:02:52;22.70;51.00
42885;DHT22;28534;48.100;11.584;2023-12-20T00:03:54;22.60;51.00
42885;DHT22;28534;48.100;11.584;2023-12-20T00:04:54;22.70;51.00
42885;DHT22;28534;48.100;11.584;2023-12-20T00:05:56;22.70;51.10
42885;DHT22;28534;48.100;11.584;2023-12-20T00:06:57;22.70;51.20
42885;DHT22;28534;48.100;11.584;2023-12-20T00:07:59;22.60;51.10
42885;DHT22;28534;48.100;11.584;2023-12-20T00:08:59;22.70;51.10
42885;DHT22;28534;48.100;11.584;2023-12-20T00:10:00;22.70;51.10
42885;DHT22;28534;48.100;11.584;2023-12-20T00:11:02;22.30;50.90
42885;DHT22;28534;48.100;11.584;2023-12-20T00:12:02;22.70;51.10
42885;DHT22;28534;48.100;11.584;2023-12-20T00:13:04;22.70;51.10
42885;DHT22;28534;48.100;11.584;2023-12-20T00:14:07;22.70;51.10
42885;DHT22;28534;48.100;11.584;2023-12-20T00:15:08;22.60;51.30
42885;DHT22;28534;48.100;11.584;2023-12-20T00:16:09;22.70;51.20
42885;DHT22;28534;48.100;11.584;2023-12-20T00:17:10;22.70;51.20
42885;DHT22;28534;48.100;11.584;2023-12-20T00:18:11;22.70;51.20
42885;DHT22;28534;48.100;11.584;2023-12-20T00:19:12;22.70;51.20
42885;DHT22;28534;48.100;11.584;2023-12-20T00:20:13;22.70;51.20
42885;DHT22;28534;48.100;11.584;2023-12-20T00:21:14;22.70;51.20
42885;DHT22;28534;48.100;11.584;2023-12-20T00:22:15;22.70;51.20
42885;DHT22;28534;48.100;11.584;2023-12-20T00:23:16;22.70;51.30
42885;DHT22;28534;48.100;11.584;2023-12-20T00:24:17;22.70;51.20
42885;DHT22;28534;48.100;11.584;2023-12-20T00:25:18;22.70;51.20
42885;DHT22;28534;48.100;11.584;2023-12-20T00:26:19;22.70;51.20
42885;DHT22;28534;48.100;11.584;2023-12-20T00:27:20;22.70;51.20
42885;DHT22;28534;48.100;11.584;2023-12-20T00:28:22;22.70;51.40
42885;DHT22;28534;48.100;11.584;2023-12-20T00:29:24;22.70;51.30
42885;DHT22;28534;48.100;11.584;2023-12-20T00:30:25;22.70;51.20
42885;DHT22;28534;48.100;11.584;2023-12-20T00:31:25;22.70;51.20
42885;DHT22;28534;48.100;11.584;2023-12-20T00:32:27;22.70;51.30
42885;DHT22;28534;48.100;11.584;2023-12-20T00:33:27;22.70;51.30
42885;DHT22;28534;48.100;11.584;2023-12-20T00:34:29;22.70;51.30
42885;DHT22;28534;48.100;11.584;2023-12-20T00:35:29;22.80;51.30
42885;DHT22;28534;48.100;11.584;2023-12-20T00:36:31;22.80;51.30
42885;DHT22;28534;48.100;11.584;2023-12-20T00:37:32;22.80;51.30
42885;DHT22;28534;48.100;11.584;2023-12-20T00:38:33;22.80;51.20
42885;DHT22;28534;48.100;11.584;2023-12-20T00:39:34;22.80;51.20
42885;DHT22;28534;48.100;11.584;2023-12-20T00:40:35;22.80;51.20
42885;DHT22;28534;48.100;11.584;2023-12-20T00:41:36;22.80;51.20
42885;DHT22;28534;48.100;11.584;2023-12-20T00:42:37;22.80;51.20
42885;DHT22;28534;48.100;11.584;2023-12-20T00:43:39;22.80;51.30
42885;DHT22;28534;48.100;11.584;2023-12-20T00:44:41;22.70;51.40
42885;DHT22;28534;48.100;11.584;2023-12-20T00:45:42;22.70;51.40
42885;DHT22;28534;48.100;11.584;2023-12-20T00:46:43;22.70;51.50
42885;DHT22;28534;48.100;11.584;2023-12-20T00:47:44;22.70;52.20
42885;DHT22;28534;48.100;11.584;2023-12-20T00:48:45;22.70;51.60
42885;DHT22;28534;48.100;11.584;2023-12-20T00:49:46;22.70;51.70
42885;DHT22;28534;48.100;11.584;2023-12-20T00:50:47;22.70;51.70
42885;DHT22;28534;48.100;11.584;2023-12-20T00:51:48;22.70;51.80
42885;DHT22;28534;48.100;11.584;2023-12-20T00:52:50;22.70;51.80
42885;DHT22;28534;48.100;11.584;2023-12-20T00:53:51;22.70;51.80
42885;DHT22;28534;48.100;11.584;2023-12-20T00:54:55;22.60;51.80
42885;DHT22;28534;48.100;11.584;2023-12-20T00:55:55;22.60;51.80
42885;DHT22;28534;48.100;11.584;2023-12-20T00:56:59;22.60;51.90
42885;DHT22;28534;48.100;11.584;2023-12-20T00:58:00;22.60;51.90
42885;DHT22;28534;48.100;11.584;2023-12-20T00:59:02;22.70;51.90
42885;DHT22;28534;48.100;11.584;2023-12-20T01:00:04;22.70;51.90
42885;DHT22;28534;48.100;11.584;2023-12-20T01:01:05;22.60;51.90
42885;DHT22;28534;48.100;11.584;2023-12-20T01:02:06;22.70;52.00
42885;DHT22;28534;48.100;11.584;2023-12-20T01:03:09;22.60;51.90
42885;DHT22;28534;48.100;11.584;2023-12-20T01:04:09;22.60;51.90
42885;DHT22;28534;48.100;11.584;2023-12-20T01:05:10;22.60;52.00
42885;DHT22;28534;48.100;11.584;2023-12-20T01:06:12;22.60;51.90
42885;DHT22;28534;48.100;11.584;2023-12-20T01:07:12;22.70;52.00
42885;DHT22;28534;48.100;11.584;2023-12-20T01:08:14;22.70;52.00
42885;DHT22;28534;48.100;11.584;2023-12-20T01:09:14;22.60;52.00
42885;DHT22;28534;48.100;11.584;2023-12-20T01:10:16;22.60;52.00
42885;DHT22;28534;48.100;11.584;2023-12-20T01:11:17;22.60;52.10
42885;DHT22;28534;48.100;11.584;2023-12-20T01:12:18;22.60;52.10
42885;DHT22;28534;48.100;11.584;2023-12-20T01:13:20;22.60;52.10
42885;DHT22;28534;48.100;11.584;2023-12-20T01:14:22;22.60;52.10
42885;DHT22;28534;48.100;11.584;2023-12-20T01:15:24;22.60;52.10
42885;DHT22;28534;48.100;11.584;2023-12-20T01:16:24;22.60;52.10
42885;DHT22;28534;48.100;11.584;2023-12-20T01:17:25;22.60;52.10
42885;DHT22;28534;48.100;11.584;2023-12-20T01:18:26;22.60;52.20
42885;DHT22;28534;48.100;11.584;2023-12-20T01:19:27;22.60;52.20
42885;DHT22;28534;48.100;11.584;2023-12-20T01:20:30;22.60;52.10
42885;DHT22;28534;48.100;11.584;2023-12-20T01:21:30;22.60;52.00
42885;DHT22;28534;48.100;11.584;2023-12-20T01:22:32;22.60;51.80
42885;DHT22;28534;48.100;11.584;2023-12-20T01:23:32;22.80;51.90
42885;DHT22;28534;48.100;11.584;2023-12-20T01:24:33;22.70;51.90
42885;DHT22;28534;48.100;11.584;2023-12-20T01:25:35;22.70;52.00
42885;DHT22;28534;48.100;11.584;2023-12-20T01:26:35;22.60;52.10
42885;DHT22;28534;48.100;11.584;2023-12-20T01:27:37;22.60;52.10
42885;DHT22;28534;48.100;11.584;2023-12-20T01:28:37;22.70;52.10
42885;DHT22;28534;48.100;11.584;2023-12-20T01:29:39;22.60;52.10
42885;DHT22;28534;48.100;11.584;2023-12-20T01:30:41;22.60;52.10
42885;DHT22;28534;48.100;11.584;2023-12-20T01:31:42;22.60;52.10
42885;DHT22;28534;48.100;11.584;2023-12-20T01:32:43;22.60;52.20
42885;DHT22;28534;48.100;11.584;2023-12-20T01:33:44;22.60;52.70
42885;DHT22;28534;48.100;11.584;2023-12-20T01:34:45;22.70;52.10
42885;DHT22;28534;48.100;11.584;2023-12-20T01:35:46;22.70;52.00
42885;DHT22;28534;48.100;11.584;2023-12-20T01:36:48;22.70;52.00
42885;DHT22;28534;48.100;11.584;2023-12-20T01:37:48;22.70;52.00
42885;DHT22;28534;48.100;11.584;2023-12-20T01:38:50;22.70;52.10
42885;DHT22;28534;48.100;11.584;2023-12-20T01:39:50;22.60;52.10
42885;DHT22;28534;48.100;11.584;2023-12-20T01:40:52;22.70;52.10
42885;DHT22;28534;48.100;11.584;2023-12-20T01:41:53;22.70;52.00
42885;DHT22;28534;48.100;11.584;2023-12-20T01:42:59;22.70;52.00
42885;DHT22;28534;48.100;11.584;2023-12-20T01:44:01;22.70;52.10
42885;DHT22;28534;48.100;11.584;2023-12-20T01:45:04;22.70;52.10
42885;DHT22;28534;48.100;11.584;2023-12-20T01:46:05;22.70;52.00
42885;DHT22;28534;48.100;11.584;2023-12-20T01:47:06;22.70;52.00
42885;DHT22;28534;48.100;11.584;2023-12-20T01:48:08;22.70;52.00
42885;DHT22;28534;48.100;11.584;2023-12-20T01:49:09;22.70;52.10
42885;DHT22;28534;48.100;11.584;2023-12-20T01:50:11;22.70;52.10
42885;DHT22;28534;48.100;11.584;2023-12-20T01:51:12;22.70;52.20
42885;DHT22;28534;48.100;11.584;2023-12-20T01:52:13;22.70;52.20
42885;DHT22;28534;48.100;11.584;2023-12-20T01:53:14;22.70;52.20
42885;DHT22;28534;48.100;11.584;2023-12-20T01:54:16;22.60;52.30
42885;DHT22;28534;48.100;11.584;2023-12-20T01:55:16;22.60;52.40
42885;DHT22;28534;48.100;11.584;2023-12-20T01:56:18;22.60;52.40
42885;DHT22;28534;48.100;11.584;2023-12-20T01:57:19;22.50;52.40
42885;DHT22;28534;48.100;11.584;2023-12-20T01:58:20;22.60;52.40
42885;DHT22;28534;48.100;11.584;2023-12-20T01:59:22;22.60;52.40
42885;DHT22;28534;48.100;11.584;2023-12-20T02:00:24;22.60;52.50
42885;DHT22;28534;48.100;11.584;2023-12-20T02:01:27;22.60;52.50
42885;DHT22;28534;48.100;11.584;2023-12-20T02:02:28;22.50;52.50
42885;DHT22;28534;48.100;11.584;2023-12-20T02:03:30;22.50;52.50
42885;DHT22;28534;48.100;11.584;2023-12-20T02:04:32;22.60;53.10
42885;DHT22;28534;48.100;11.584;2023-12-20T02:05:33;22.60;52.40
42885;DHT22;28534;48.100;11.584;2023-12-20T02:06:35;22.60;52.40
42885;DHT22;28534;48.100;11.584;2023-12-20T02:07:36;22.60;52.40
42885;DHT22;28534;48.100;11.584;2023-12-20T02:08:37;22.60;52.50
42885;DHT22;28534;48.100;11.584;2023-12-20T02:09:38;22.60;52.50
42885;DHT22;28534;48.100;11.584;2023-12-20T02:10:39;22.60;52.50
42885;DHT22;28534;48.100;11.584;2023-12-20T02:11:42;22.60;52.40
42885;DHT22;28534;48.100;11.584;2023-12-20T02:12:43;22.70;52.40
42885;DHT22;28534;48.100;11.584;2023-12-20T02:13:45;22.60;52.40
42885;DHT22;28534;48.100;11.584;2023-12-20T02:14:45;22.70;52.40
42885;DHT22;28534;48.100;11.584;2023-12-20T02:15:47;22.70;52.30
42885;DHT22;28534;48.100;11.584;2023-12-20T02:16:49;22.70;52.20
42885;DHT22;28534;48.100;11.584;2023-12-20T02:17:49;22.80;52.20
42885;DHT22;28534;48.100;11.584;2023-12-20T02:18:50;22.70;52.20
42885;DHT22;28534;48.100;11.584;2023-12-20T02:19:52;22.70;52.20
42885;DHT22;28534;48.100;11.584;2023-12-20T02:20:52;22.70;52.20
42885;DHT22;28534;48.100;11.584;2023-12-20T02:22:06;22.70;52.20
42885;DHT22;28534;48.100;11.584;2023-12-20T02:23:06;22.70;52.20
42885;DHT22;28534;48.100;11.584;2023-12-20T02:24:08;22.70;52.20
42885;DHT22;28534;48.100;11.584;2023-12-20T02:25:08;22.70;52.20
42885;DHT22;28534;48.100;11.584;2023-12-20T02:26:09;22.70;52.20
42885;DHT22;28534;48.100;11.584;2023-12-20T02:27:11;22.70;52.20
42885;DHT22;28534;48.100;11.584;2023-12-20T02:28:12;22.70;52.30
42885;DHT22;28534;48.100;11.584;2023-12-20T02:29:14;22.70;52.30
42885;DHT22;28534;48.100;11.584;2023-12-20T02:30:15;22.70;52.40
42885;DHT22;28534;48.100;11.584;2023-12-20T02:31:15;22.70;52.40
42885;DHT22;28534;48.100;11.584;2023-12-20T02:32:17;22.70;52.40
42885;DHT22;28534;48.100;11.584;2023-12-20T02:33:18;22.70;52.40
42885;DHT22;28534;48.100;11.584;2023-12-20T02:34:19;22.70;52.40
42885;DHT22;28534;48.100;11.584;2023-12-20T02:35:20;22.70;52.50
42885;DHT22;28534;48.100;11.584;2023-12-20T02:36:21;22.70;52.50
42885;DHT22;28534;48.100;11.584;2023-12-20T02:37:23;22.70;52.50
42885;DHT22;28534;48.100;11.584;2023-12-20T02:38:24;22.70;52.50
42885;DHT22;28534;48.100;11.584;2023-12-20T02:39:26;22.70;52.60
42885;DHT22;28534;48.100;11.584;2023-12-20T02:40:26;22.60;52.50
42885;DHT22;28534;48.100;11.584;2023-12-20T02:41:27;22.60;52.60
42885;DHT22;28534;48.100;11.584;2023-12-20T02:42:28;22.70;52.60
42885;DHT22;28534;48.100;11.584;2023-12-20T02:43:29;22.60;52.60
42885;DHT22;28534;48.100;11.584;2023-12-20T02:44:30;22.70;52.70
42885;DHT22;28534;48.100;11.584;2023-12-20T02:45:31;22.60;52.70
42885;DHT22;28534;48.100;11.584;2023-12-20T02:46:33;22.60;52.70
42885;DHT22;28534;48.100;11.584;2023-12-20T02:47:33;22.60;52.80
42885;DHT22;28534;48.100;11.584;2023-12-20T02:48:35;22.60;52.80
42885;DHT22;28534;48.100;11.584;2023-12-20T02:49:35;22.60;52.80
42885;DHT22;28534;48.100;11.584;2023-12-20T02:50:37;22.50;52.80
42885;DHT22;28534;48.100;11.584;2023-12-20T02:51:37;22.60;52.80
42885;DHT22;28534;48.100;11.584;2023-12-20T02:52:40;22.60;52.80
42885;DHT22;28534;48.100;11.584;2023-12-20T02:53:41;22.60;52.80
42885;DHT22;28534;48.100;11.584;2023-12-20T02:54:42;22.60;52.70
42885;DHT22;28534;48.100;11.584;2023-12-20T02:55:44;22.60;52.80
42885;DHT22;28534;48.100;11.584;2023-12-20T02:56:44;22.60;52.80
42885;DHT22;28534;48.100;11.584;2023-12-20T02:57:46;22.50;52.80
42885;DHT22;28534;48.100;11.584;2023-12-20T02:58:46;22.60;52.90
42885;DHT22;28534;48.100;11.584;2023-12-20T02:59:48;22.60;52.80
42885;DHT22;28534;48.100;11.584;2023-12-20T03:00:49;22.60;52.80
42885;DHT22;28534;48.100;11.584;2023-12-20T03:01:50;22.60;52.80
42885;DHT22;28534;48.100;11.584;2023-12-20T03:02:51;22.60;52.70
42885;DHT22;28534;48.100;11.584;2023-12-20T03:03:52;22.70;52.70
42885;DHT22;28534;48.100;11.584;2023-12-20T03:04:53;22.60;52.70
42885;DHT22;28534;48.100;11.584;2023-12-20T03:05:55;22.60;52.80
42885;DHT22;28534;48.100;11.584;2023-12-20T03:06:55;22.60;52.90
42885;DHT22;28534;48.100;11.584;2023-12-20T03:07:58;22.50;52.80
42885;DHT22;28534;48.100;11.584;2023-12-20T03:08:59;22.50;52.80
42885;DHT22;28534;48.100;11.584;2023-12-20T03:10:00;22.60;52.90
42885;DHT22;28534;48.100;11.584;2023-12-20T03:11:01;22.60;52.90
42885;DHT22;28534;48.100;11.584;2023-12-20T03:12:03;22.50;52.90
42885;DHT22;28534;48.100;11.584;2023-12-20T03:13:04;22.50;52.90
42885;DHT22;28534;48.100;11.584;2023-12-20T03:14:06;22.50;52.80
42885;DHT22;28534;48.100;11.584;2023-12-20T03:15:06;22.60;52.80
42885;DHT22;28534;48.100;11.584;2023-12-20T03:16:08;22.60;52.80
42885;DHT22;28534;48.100;11.584;2023-12-20T03:17:09;22.60;52.90
42885;DHT22;28534;48.100;11.584;2023-12-20T03:18:10;22.50;52.90
42885;DHT22;28534;48.100;11.584;2023-12-20T03:19:11;22.50;52.90
42885;DHT22;28534;48.100;11.584;2023-12-20T03:20:13;22.50;52.90
42885;DHT22;28534;48.100;11.584;2023-12-20T03:21:13;22.50;53.30
42885;DHT22;28534;48.100;11.584;2023-12-20T03:22:15;22.60;52.90
42885;DHT22;28534;48.100;11.584;2023-12-20T03:23:17;22.60;52.90
42885;DHT22;28534;48.100;11.584;2023-12-20T03:24:18;22.60;52.80
42885;DHT22;28534;48.100;11.584;2023-12-20T03:25:19;22.60;52.80
42885;DHT22;28534;48.100;11.584;2023-12-20T03:26:21;22.60;52.90
42885;DHT22;28534;48.100;11.584;2023-12-20T03:27:22;22.60;52.90
42885;DHT22;28534;48.100;11.584;2023-12-20T03:28:24;22.70;52.90
42885;DHT22;28534;48.100;11.584;2023-12-20T03:29:25;22.60;52.80
42885;DHT22;28534;48.100;11.584;2023-12-20T03:30:26;22.60;52.80
42885;DHT22;28534;48.100;11.584;2023-12-20T03:31:27;22.60;52.80
42885;DHT22;28534;48.100;11.584;2023-12-20T03:32:29;22.60;52.90
42885;DHT22;28534;48.100;11.584;2023-12-20T03:33:29;22.60;52.90
42885;DHT22;28534;48.100;11.584;2023-12-20T03:34:31;22.60;52.90
42885;DHT22;28534;48.100;11.584;2023-12-20T03:35:31;22.60;52.90
42885;DHT22;28534;48.100;11.584;2023-12-20T03:36:33;22.60;52.90
42885;DHT22;28534;48.100;11.584;2023-12-20T03:37:33;22.60;52.90
42885;DHT22;28534;48.100;11.584;2023-12-20T03:38:35;22.60;52.80
42885;DHT22;28534;48.100;11.584;2023-12-20T03:39:37;22.70;53.40
42885;DHT22;28534;48.100;11.584;2023-12-20T03:40:38;22.70;52.70
42885;DHT22;28534;48.100;11.584;2023-12-20T03:41:38;22.70;52.70
42885;DHT22;28534;48.100;11.584;2023-12-20T03:42:40;22.70;52.70
42885;DHT22;28534;48.100;11.584;2023-12-20T03:43:40;22.60;52.70
42885;DHT22;28534;48.100;11.584;2023-12-20T03:44:42;22.70;52.80
42885;DHT22;28534;48.100;11.584;2023-12-20T03:45:43;22.60;52.70
42885;DHT22;28534;48.100;11.584;2023-12-20T03:46:44;22.70;52.70
42885;DHT22;28534;48.100;11.584;2023-12-20T03:47:46;22.70;52.80
42885;DHT22;28534;48.100;11.584;2023-12-20T03:48:48;22.70;52.70
42885;DHT22;28534;48.100;11.584;2023-12-20T03:49:48;22.60;52.80
42885;DHT22;28534;48.100;11.584;2023-12-20T03:50:50;22.60;52.80
42885;DHT22;28534;48.100;11.584;2023-12-20T03:51:50;22.60;52.80
42885;DHT22;28534;48.100;11.584;2023-12-20T03:52:52;22.60;52.80
42885;DHT22;28534;48.100;11.584;2023-12-20T03:53:54;22.60;52.90
42885;DHT22;28534;48.100;11.584;2023-12-20T03:54:56;22.60;53.00
42885;DHT22;28534;48.100;11.584;2023-12-20T03:55:56;22.60;53.00
42885;DHT22;28534;48.100;11.584;2023-12-20T03:56:58;22.60;53.00
42885;DHT22;28534;48.100;11.584;2023-12-20T03:57:59;22.60;53.00
42885;DHT22;28534;48.100;11.584;2023-12-20T03:58:59;22.60;53.00
42885;DHT22;28534;48.100;11.584;2023-12-20T04:00:01;22.60;53.00
42885;DHT22;28534;48.100;11.584;2023-12-20T04:01:01;22.60;53.00
42885;DHT22;28534;48.100;11.584;2023-12-20T04:02:03;22.60;52.90
42885;DHT22;28534;48.100;11.584;2023-12-20T04:03:04;22.60;52.90
42885;DHT22;28534;48.100;11.584;2023-12-20T04:04:05;22.60;52.90
42885;DHT22;28534;48.100;11.584;2023-12-20T04:05:07;22.60;53.00
42885;DHT22;28534;48.100;11.584;2023-12-20T04:06:07;22.60;53.10
42885;DHT22;28534;48.100;11.584;2023-12-20T04:07:10;22.60;53.10
42885;DHT22;28534;48.100;11.584;2023-12-20T04:08:10;22.60;53.00
42885;DHT22;28534;48.100;11.584;2023-12-20T04:09:12;22.60;53.00
42885;DHT22;28534;48.100;11.584;2023-12-20T04:10:14;22.60;53.00
42885;DHT22;28534;48.100;11.584;2023-12-20T04:11:15;22.60;53.00
42885;DHT22;28534;48.100;11.584;2023-12-20T04:12:16;22.60;52.90
42885;DHT22;28534;48.100;11.584;2023-12-20T04:13:17;22.70;52.90
42885;DHT22;28534;48.100;11.584;2023-12-20T04:14:18;22.60;52.90
42885;DHT22;28534;48.100;11.584;2023-12-20T04:15:19;22.60;52.90
42885;DHT22;28534;48.100;11.584;2023-12-20T04:16:20;22.60;52.90
42885;DHT22;28534;48.100;11.584;2023-12-20T04:17:21;22.60;52.90
42885;DHT22;28534;48.100;11.584;2023-12-20T04:18:23;22.70;52.90
42885;DHT22;28534;48.100;11.584;2023-12-20T04:19:23;22.70;52.90
42885;DHT22;28534;48.100;11.584;2023-12-20T04:20:25;22.80;52.80
42885;DHT22;28534;48.100;11.584;2023-12-20T04:21:26;22.70;52.60
42885;DHT22;28534;48.100;11.584;2023-12-20T04:22:26;22.80;52.60
42885;DHT22;28534;48.100;11.584;2023-12-20T04:23:28;22.80;52.60
42885;DHT22;28534;48.100;11.584;2023-12-20T04:24:30;22.80;52.50
42885;DHT22;28534;48.100;11.584;2023-12-20T04:25:32;22.90;52.40
42885;DHT22;28534;48.100;11.584;2023-12-20T04:26:32;22.90;52.70
42885;DHT22;28534;48.100;11.584;2023-12-20T04:27:33;22.90;52.40
42885;DHT22;28534;48.100;11.584;2023-12-20T04:28:34;22.90;52.40
42885;DHT22;28534;48.100;11.584;2023-12-20T04:29:35;23.00;52.40
42885;DHT22;28534;48.100;11.584;2023-12-20T04:30:36;22.90;52.30
42885;DHT22;28534;48.100;11.584;2023-12-20T04:31:37;23.00;52.40
42885;DHT22;28534;48.100;11.584;2023-12-20T04:32:39;22.90;52.40
42885;DHT22;28534;48.100;11.584;2023-12-20T04:33:39;22.90;52.40
42885;DHT22;28534;48.100;11.584;2023-12-20T04:34:41;23.00;52.40
42885;DHT22;28534;48.100;11.584;2023-12-20T04:35:41;22.90;52.40
42885;DHT22;28534;48.100;11.584;2023-12-20T04:36:43;23.00;52.40
42885;DHT22;28534;48.100;11.584;2023-12-20T04:37:45;23.00;52.30
42885;DHT22;28534;48.100;11.584;2023-12-20T04:38:45;23.00;52.20
42885;DHT22;28534;48.100;11.584;2023-12-20T04:39:48;23.10;52.20
42885;DHT22;28534;48.100;11.584;2023-12-20T04:40:49;23.00;52.20
42885;DHT22;28534;48.100;11.584;2023-12-20T04:41:50;23.00;52.20
42885;DHT22;28534;48.100;11.584;2023-12-20T04:42:51;23.10;52.20
42885;DHT22;28534;48.100;11.584;2023-12-20T04:43:52;23.00;52.10
42885;DHT22;28534;48.100;11.584;2023-12-20T04:44:53;23.00;52.10
42885;DHT22;28534;48.100;11.584;2023-12-20T04:45:55;23.10;52.10
42885;DHT22;28534;48.100;11.584;2023-12-20T04:46:55;23.10;52.20
42885;DHT22;28534;48.100;11.584;2023-12-20T04:47:57;23.10;52.10
42885;DHT22;28534;48.100;11.584;2023-12-20T04:48:58;23.20;52.10
42885;DHT22;28534;48.100;11.584;2023-12-20T04:49:59;23.10;52.10
42885;DHT22;28534;48.100;11.584;2023-12-20T04:51:00;23.20;52.10
42885;DHT22;28534;48.100;11.584;2023-12-20T04:52:02;23.10;52.10
42885;DHT22;28534;48.100;11.584;2023-12-20T04:53:03;23.10;52.10
42885;DHT22;28534;48.100;11.584;2023-12-20T04:54:03;23.10;52.10
42885;DHT22;28534;48.100;11.584;2023-12-20T04:55:07;23.10;52.10
42885;DHT22;28534;48.100;11.584;2023-12-20T04:56:07;23.10;52.10
42885;DHT22;28534;48.100;11.584;2023-12-20T04:57:09;23.10;52.00
42885;DHT22;28534;48.100;11.584;2023-12-20T04:58:09;23.20;52.00
42885;DHT22;28534;48.100;11.584;2023-12-20T04:59:11;23.20;51.90
42885;DHT22;28534;48.100;11.584;2023-12-20T05:00:12;23.20;51.90
42885;DHT22;28534;48.100;11.584;2023-12-20T05:01:15;23.30;51.90
42885;DHT22;28534;48.100;11.584;2023-12-20T05:02:16;23.20;51.80
42885;DHT22;28534;48.100;11.584;2023-12-20T05:03:16;23.20;51.80
42885;DHT22;28534;48.100;11.584;2023-12-20T05:04:18;23.20;51.70
42885;DHT22;28534;48.100;11.584;2023-12-20T05:05:19;23.30;51.80
42885;DHT22;28534;48.100;11.584;2023-12-20T05:06:20;23.30;51.70
42885;DHT22;28534;48.100;11.584;2023-12-20T05:07:21;23.40;51.80
42885;DHT22;28534;48.100;11.584;2023-12-20T05:08:22;23.40;51.80
42885;DHT22;28534;48.100;11.584;2023-12-20T05:09:23;23.40;51.90
42885;DHT22;28534;48.100;11.584;2023-12-20T05:10:26;23.30;51.90
42885;DHT22;28534;48.100;11.584;2023-12-20T05:11:28;23.30;51.90
42885;DHT22;28534;48.100;11.584;2023-12-20T05:12:29;23.30;51.90
42885;DHT22;28534;48.100;11.584;2023-12-20T05:13:30;23.30;51.90
42885;DHT22;28534;48.100;11.584;2023-12-20T05:14:31;23.30;51.90
42885;DHT22;28534;48.100;11.584;2023-12-20T05:15:32;23.40;51.90
42885;DHT22;28534;48.100;11.584;2023-12-20T05:16:33;23.40;51.90
42885;DHT22;28534;48.100;11.584;2023-12-20T05:17:34;23.40;52.00
42885;DHT22;28534;48.100;11.584;2023-12-20T05:18:35;23.40;51.90
42885;DHT22;28534;48.100;11.584;2023-12-20T05:19:36;23.40;52.00
42885;DHT22;28534;48.100;11.584;2023-12-20T05:20:37;23.40;51.90
42885;DHT22;28534;48.100;11.584;2023-12-20T05:21:39;23.40;51.90
42885;DHT22;28534;48.100;11.584;2023-12-20T05:22:40;23.40;52.00
42885;DHT22;28534;48.100;11.584;2023-12-20T05:23:42;23.40;52.00
42885;DHT22;28534;48.100;11.584;2023-12-20T05:24:42;23.40;52.00
42885;DHT22;28534;48.100;11.584;2023-12-20T05:25:45;23.40;52.30
42885;DHT22;28534;48.100;11.584;2023-12-20T05:26:46;23.40;52.10
42885;DHT22;28534;48.100;11.584;2023-12-20T05:27:48;23.50;52.20
42885;DHT22;28534;48.100;11.584;2023-12-20T05:28:48;23.50;52.10
42885;DHT22;28534;48.100;11.584;2023-12-20T05:29:50;23.50;52.10
42885;DHT22;28534;48.100;11.584;2023-12-20T05:30:50;23.50;52.20
42885;DHT22;28534;48.100;11.584;2023-12-20T05:31:52;23.50;52.20
42885;DHT22;28534;48.100;11.584;2023-12-20T05:32:53;23.50;52.10
42885;DHT22;28534;48.100;11.584;2023-12-20T05:33:54;23.50;52.20
42885;DHT22;28534;48.100;11.584;2023-12-20T05:34:55;23.50;52.20
42885;DHT22;28534;48.100;11.584;2023-12-20T05:35:56;23.50;52.30
42885;DHT22;28534;48.100;11.584;2023-12-20T05:36:57;23.50;52.30
42885;DHT22;28534;48.100;11.584;2023-12-20T05:37:58;23.50;52.40
42885;DHT22;28534;48.100;11.584;2023-12-20T05:38:59;23.50;52.30
42885;DHT22;28534;48.100;11.584;2023-12-20T05:40:00;23.50;52.30
42885;DHT22;28534;48.100;11.584;2023-12-20T05:41:03;23.50;52.30
42885;DHT22;28534;48.100;11.584;2023-12-20T05:42:04;23.50;52.30
42885;DHT22;28534;48.100;11.584;2023-12-20T05:43:06;23.50;52.40
42885;DHT22;28534;48.100;11.584;2023-12-20T05:44:06;23.50;52.40
42885;DHT22;28534;48.100;11.584;2023-12-20T05:45:08;23.50;52.40
42885;DHT22;28534;48.100;11.584;2023-12-20T05:46:10;23.50;52.40
42885;DHT22;28534;48.100;11.584;2023-12-20T05:47:11;23.60;52.50
42885;DHT22;28534;48.100;11.584;2023-12-20T05:48:12;23.50;52.40
42885;DHT22;28534;48.100;11.584;2023-12-20T05:49:14;23.50;52.50
42885;DHT22;28534;48.100;11.584;2023-12-20T05:50:14;23.50;52.50
42885;DHT22;28534;48.100;11.584;2023-12-20T05:51:16;23.50;52.50
42885;DHT22;28534;48.100;11.584;2023-12-20T05:52:17;23.50;52.60
42885;DHT22;28534;48.100;11.584;2023-12-20T05:53:18;23.50;52.60
42885;DHT22;28534;48.100;11.584;2023-12-20T05:54:19;23.50;52.70
42885;DHT22;28534;48.100;11.584;2023-12-20T05:55:19;23.40;52.60
42885;DHT22;28534;48.100;11.584;2023-12-20T05:56:22;23.40;52.60
42885;DHT22;28534;48.100;11.584;2023-12-20T05:57:23;23.50;52.80
42885;DHT22;28534;48.100;11.584;2023-12-20T05:58:23;23.40;52.70
42885;DHT22;28534;48.100;11.584;2023-12-20T05:59:25;23.40;52.70
42885;DHT22;28534;48.100;11.584;2023-12-20T06:00:26;23.40;52.70
42885;DHT22;28534;48.100;11.584;2023-12-20T06:01:27;23.40;52.80
42885;DHT22;28534;48.100;11.584;2023-12-20T06:02:28;23.50;52.80
42885;DHT22;28534;48.100;11.584;2023-12-20T06:03:29;23.40;52.60
42885;DHT22;28534;48.100;11.584;2023-12-20T06:04:30;23.40;52.50
42885;DHT22;28534;48.100;11.584;2023-12-20T06:05:31;23.50;52.60
42885;DHT22;28534;48.100;11.584;2023-12-20T06:06:32;23.50;52.60
42885;DHT22;28534;48.100;11.584;2023-12-20T06:07:34;23.50;52.70
42885;DHT22;28534;48.100;11.584;2023-12-20T06:08:34;23.50;52.80
42885;DHT22;28534;48.100;11.584;2023-12-20T06:09:36;23.60;53.00
42885;DHT22;28534;48.100;11.584;2023-12-20T06:10:36;23.60;53.00
42885;DHT22;28534;48.100;11.584;2023-12-20T06:11:38;23.60;53.00
42885;DHT22;28534;48.100;11.584;2023-12-20T06:12:40;23.60;53.10
42885;DHT22;28534;48.100;11.584;2023-12-20T06:13:40;23.60;53.20
42885;DHT22;28534;48.100;11.584;2023-12-20T06:14:42;23.60;53.40
42885;DHT22;28534;48.100;11.584;2023-12-20T06:15:43;23.60;53.50
42885;DHT22;28534;48.100;11.584;2023-12-20T06:16:45;23.60;53.50
42885;DHT22;28534;48.100;11.584;2023-12-20T06:17:46;23.60;53.50
42885;DHT22;28534;48.100;11.584;2023-12-20T06:18:47;23.50;53.60
42885;DHT22;28534;48.100;11.584;2023-12-20T06:19:48;23.60;53.60
42885;DHT22;28534;48.100;11.584;2023-12-20T06:20:50;23.60;54.10